sensor_id;sensor_type;location;lat;lon;timestamp;temperature;humidity
21830;DHT22;11077;50.264;6.798;2023-11-22T00:00:17;3.90;99.90
21830;DHT22;11077;50.264;6.798;2023-11-22T00:02:48;3.80;99.90
21830;DHT22;11077;50.264;6.798;2023-11-22T00:05:15;3.80;99.90
21830;DHT22;11077;50.264;6.798;2023-11-22T00:07:42;3.80;99.90
21830;DHT22;11077;50.264;6.798;2023-11-22T00:10:10;3.80;99.90
21830;DHT22;11077;50.264;6.798;2023-11-22T00:12:37;3.80;99.90
21830;DHT22;11077;50.264;6.798;2023-11-22T00:15:05;3.80;99.90
21830;DHT22;11077;50.264;6.798;2023-11-22T00:17:33;3.80;99.90
21830;DHT22;11077;50.264;6.798;2023-11-22T00:20:02;3.70;99.90
21830;DHT22;11077;50.264;6.798;2023-11-22T00:22:31;3.70;99.90
21830;DHT22;11077;50.264;6.798;2023-11-22T00:24:59;3.80;99.90
21830;DHT22;11077;50.264;6.798;2023-11-22T00:27:27;3.80;99.90
21830;DHT22;11077;50.264;6.798;2023-11-22T00:29:55;3.80;99.90
21830;DHT22;11077;50.264;6.798;2023-11-22T00:32:23;3.80;99.90
21830;DHT22;11077;50.264;6.798;2023-11-22T00:34:51;3.80;99.90
21830;DHT22;11077;50.264;6.798;2023-11-22T00:37:20;3.80;99.90
21830;DHT22;11077;50.264;6.798;2023-11-22T00:39:47;3.80;99.90
21830;DHT22;11077;50.264;6.798;2023-11-22T00:42:14;3.90;99.90
21830;DHT22;11077;50.264;6.798;2023-11-22T00:44:45;3.90;99.90
21830;DHT22;11077;50.264;6.798;2023-11-22T00:47:12;3.90;99.90
21830;DHT22;11077;50.264;6.798;2023-11-22T00:49:42;3.90;99.90
21830;DHT22;11077;50.264;6.798;2023-11-22T00:52:09;3.90;99.90
21830;DHT22;11077;50.264;6.798;2023-11-22T00:54:38;3.90;99.90
21830;DHT22;11077;50.264;6.798;2023-11-22T00:57:05;3.90;99.90
21830;DHT22;11077;50.264;6.798;2023-11-22T00:59:33;3.90;99.90
21830;DHT22;11077;50.264;6.798;2023-11-22T01:02:01;4.00;99.90
21830;DHT22;11077;50.264;6.798;2023-11-22T01:04:31;3.90;99.90
21830;DHT22;11077;50.264;6.798;2023-11-22T01:07:01;3.90;99.90
21830;DHT22;11077;50.264;6.798;2023-11-22T01:09:30;3.90;99.90
21830;DHT22;11077;50.264;6.798;2023-11-22T01:11:59;3.90;99.90
21830;DHT22;11077;50.264;6.798;2023-11-22T01:14:26;3.90;99.90
21830;DHT22;11077;50.264;6.798;2023-11-22T01:16:54;3.80;99.90
21830;DHT22;11077;50.264;6.798;2023-11-22T01:19:21;3.80;99.90
21830;DHT22;11077;50.264;6.798;2023-11-22T01:21:48;3.80;99.90
21830;DHT22;11077;50.264;6.798;2023-11-22T01:24:15;3.80;99.90
21830;DHT22;11077;50.264;6.798;2023-11-22T01:26:43;3.70;99.90
21830;DHT22;11077;50.264;6.798;2023-11-22T01:29:11;3.70;99.90
21830;DHT22;11077;50.264;6.798;2023-11-22T01:31:39;3.70;99.90
21830;DHT22;11077;50.264;6.798;2023-11-22T01:34:07;3.70;99.90
21830;DHT22;11077;50.264;6.798;2023-11-22T01:36:35;3.70;99.90
21830;DHT22;11077;50.264;6.798;2023-11-22T01:39:02;3.70;99.90
21830;DHT22;11077;50.264;6.798;2023-11-22T01:41:30;3.70;99.90
21830;DHT22;11077;50.264;6.798;2023-11-22T01:43:57;3.70;99.90
21830;DHT22;11077;50.264;6.798;2023-11-22T01:46:26;3.70;99.90
21830;DHT22;11077;50.264;6.798;2023-11-22T01:48:54;3.70;99.90
21830;DHT22;11077;50.264;6.798;2023-11-22T01:51:22;3.60;99.90
21830;DHT22;11077;50.264;6.798;2023-11-22T01:53:52;3.60;99.90
21830;DHT22;11077;50.264;6.798;2023-11-22T01:56:20;3.60;99.90
21830;DHT22;11077;50.264;6.798;2023-11-22T01:58:49;3.50;99.90
21830;DHT22;11077;50.264;6.798;2023-11-22T02:01:17;3.50;99.90
21830;DHT22;11077;50.264;6.798;2023-11-22T02:03:47;3.50;99.90
21830;DHT22;11077;50.264;6.798;2023-11-22T02:06:16;3.50;99.90
21830;DHT22;11077;50.264;6.798;2023-11-22T02:08:43;3.50;99.90
21830;DHT22;11077;50.264;6.798;2023-11-22T02:11:10;3.50;99.90
21830;DHT22;11077;50.264;6.798;2023-11-22T02:13:37;3.40;99.90
21830;DHT22;11077;50.264;6.798;2023-11-22T02:16:05;3.50;99.90
21830;DHT22;11077;50.264;6.798;2023-11-22T02:18:32;3.50;99.90
21830;DHT22;11077;50.264;6.798;2023-11-22T02:21:01;3.40;99.90
21830;DHT22;11077;50.264;6.798;2023-11-22T02:23:29;3.50;99.90
21830;DHT22;11077;50.264;6.798;2023-11-22T02:25:56;3.40;99.90
21830;DHT22;11077;50.264;6.798;2023-11-22T02:28:24;3.40;99.90
21830;DHT22;11077;50.264;6.798;2023-11-22T02:30:51;3.40;99.90
21830;DHT22;11077;50.264;6.798;2023-11-22T02:33:22;3.40;99.90
21830;DHT22;11077;50.264;6.798;2023-11-22T02:35:49;3.40;99.90
21830;DHT22;11077;50.264;6.798;2023-11-22T02:38:16;3.30;99.90
21830;DHT22;11077;50.264;6.798;2023-11-22T02:40:45;3.30;99.90
21830;DHT22;11077;50.264;6.798;2023-11-22T02:43:13;3.20;99.90
21830;DHT22;11077;50.264;6.798;2023-11-22T02:45:41;3.20;99.90
21830;DHT22;11077;50.264;6.798;2023-11-22T02:48:09;3.20;99.90
21830;DHT22;11077;50.264;6.798;2023-11-22T02:50:36;3.20;99.90
21830;DHT22;11077;50.264;6.798;2023-11-22T02:53:04;3.20;99.90
21830;DHT22;11077;50.264;6.798;2023-11-22T02:55:31;3.20;99.90
21830;DHT22;11077;50.264;6.798;2023-11-22T02:58:00;3.20;99.90
21830;DHT22;11077;50.264;6.798;2023-11-22T03:00:28;3.20;99.90
21830;DHT22;11077;50.264;6.798;2023-11-22T03:02:55;3.20;99.90
21830;DHT22;11077;50.264;6.798;2023-11-22T03:05:23;3.20;99.90
21830;DHT22;11077;50.264;6.798;2023-11-22T03:07:50;3.20;99.90
21830;DHT22;11077;50.264;6.798;2023-11-22T03:10:18;3.20;99.90
21830;DHT22;11077;50.264;6.798;2023-11-22T03:12:45;3.20;99.90
21830;DHT22;11077;50.264;6.798;2023-11-22T03:15:15;3.20;99.90
21830;DHT22;11077;50.264;6.798;2023-11-22T03:17:42;3.20;99.90
21830;DHT22;11077;50.264;6.798;2023-11-22T03:20:10;3.30;99.90
21830;DHT22;11077;50.264;6.798;2023-11-22T03:22:38;3.20;99.90
21830;DHT22;11077;50.264;6.798;2023-11-22T03:25:05;3.20;99.90
21830;DHT22;11077;50.264;6.798;2023-11-22T03:27:35;3.20;99.90
21830;DHT22;11077;50.264;6.798;2023-11-22T03:30:03;3.20;99.90
21830;DHT22;11077;50.264;6.798;2023-11-22T03:32:32;3.20;99.90
21830;DHT22;11077;50.264;6.798;2023-11-22T03:35:03;3.20;99.90
21830;DHT22;11077;50.264;6.798;2023-11-22T03:37:31;3.20;99.90
21830;DHT22;11077;50.264;6.798;2023-11-22T03:39:58;3.20;99.90
21830;DHT22;11077;50.264;6.798;2023-11-22T03:42:25;3.20;99.90
21830;DHT22;11077;50.264;6.798;2023-11-22T03:44:53;3.20;99.90
21830;DHT22;11077;50.264;6.798;2023-11-22T03:47:20;3.20;99.90
21830;DHT22;11077;50.264;6.798;2023-11-22T03:49:49;3.20;99.90
21830;DHT22;11077;50.264;6.798;2023-11-22T03:52:16;3.10;99.90
21830;DHT22;11077;50.264;6.798;2023-11-22T03:54:43;3.10;99.90
21830;DHT22;11077;50.264;6.798;2023-11-22T03:57:10;3.10;99.90
21830;DHT22;11077;50.264;6.798;2023-11-22T03:59:37;3.10;99.90
21830;DHT22;11077;50.264;6.798;2023-11-22T04:02:05;3.10;99.90
21830;DHT22;11077;50.264;6.798;2023-11-22T04:04:33;3.10;99.90
21830;DHT22;11077;50.264;6.798;2023-11-22T04:07:02;3.10;99.90
21830;DHT22;11077;50.264;6.798;2023-11-22T04:09:29;3.00;99.90
21830;DHT22;11077;50.264;6.798;2023-11-22T04:11:56;3.00;99.90
21830;DHT22;11077;50.264;6.798;2023-11-22T04:14:22;3.00;99.90
21830;DHT22;11077;50.264;6.798;2023-11-22T04:16:49;2.90;99.90
21830;DHT22;11077;50.264;6.798;2023-11-22T04:19:16;2.90;99.90
21830;DHT22;11077;50.264;6.798;2023-11-22T04:21:44;2.90;99.90
21830;DHT22;11077;50.264;6.798;2023-11-22T04:24:12;2.90;99.90
21830;DHT22;11077;50.264;6.798;2023-11-22T04:26:40;2.90;99.90
21830;DHT22;11077;50.264;6.798;2023-11-22T04:29:07;2.90;99.90
21830;DHT22;11077;50.264;6.798;2023-11-22T04:31:34;2.90;99.90
21830;DHT22;11077;50.264;6.798;2023-11-22T04:34:01;3.00;99.90
21830;DHT22;11077;50.264;6.798;2023-11-22T04:36:28;2.90;99.90
21830;DHT22;11077;50.264;6.798;2023-11-22T04:38:56;2.90;99.90
21830;DHT22;11077;50.264;6.798;2023-11-22T04:41:25;2.90;99.90
21830;DHT22;11077;50.264;6.798;2023-11-22T04:43:52;2.90;99.90
21830;DHT22;11077;50.264;6.798;2023-11-22T04:46:19;2.80;99.90
21830;DHT22;11077;50.264;6.798;2023-11-22T04:48:46;2.80;99.90
21830;DHT22;11077;50.264;6.798;2023-11-22T04:51:17;2.80;99.90
21830;DHT22;11077;50.264;6.798;2023-11-22T04:53:44;2.90;99.90
21830;DHT22;11077;50.264;6.798;2023-11-22T04:56:11;2.80;99.90
21830;DHT22;11077;50.264;6.798;2023-11-22T04:58:40;2.80;99.90
21830;DHT22;11077;50.264;6.798;2023-11-22T05:01:07;2.90;99.90
21830;DHT22;11077;50.264;6.798;2023-11-22T05:03:36;2.80;99.90
21830;DHT22;11077;50.264;6.798;2023-11-22T05:06:04;2.90;99.90
21830;DHT22;11077;50.264;6.798;2023-11-22T05:08:31;2.80;99.90
21830;DHT22;11077;50.264;6.798;2023-11-22T05:11:00;2.90;99.90
21830;DHT22;11077;50.264;6.798;2023-11-22T05:13:28;2.90;99.90
21830;DHT22;11077;50.264;6.798;2023-11-22T05:15:58;2.80;99.90
21830;DHT22;11077;50.264;6.798;2023-11-22T05:18:26;2.90;99.90
21830;DHT22;11077;50.264;6.798;2023-11-22T05:20:53;2.90;99.90
21830;DHT22;11077;50.264;6.798;2023-11-22T05:23:20;2.90;99.90
21830;DHT22;11077;50.264;6.798;2023-11-22T05:25:48;2.90;99.90
21830;DHT22;11077;50.264;6.798;2023-11-22T05:28:16;2.90;99.90
21830;DHT22;11077;50.264;6.798;2023-11-22T05:30:43;2.90;99.90
21830;DHT22;11077;50.264;6.798;2023-11-22T05:33:12;2.90;99.90
21830;DHT22;11077;50.264;6.798;2023-11-22T05:35:39;2.90;99.90
21830;DHT22;11077;50.264;6.798;2023-11-22T05:38:07;2.80;99.90
21830;DHT22;11077;50.264;6.798;2023-11-22T05:40:35;2.80;99.90
21830;DHT22;11077;50.264;6.798;2023-11-22T05:43:03;2.80;99.90
21830;DHT22;11077;50.264;6.798;2023-11-22T05:45:30;2.80;99.90
21830;DHT22;11077;50.264;6.798;2023-11-22T05:47:57;2.80;99.90
21830;DHT22;11077;50.264;6.798;2023-11-22T05:50:26;2.80;99.90
21830;DHT22;11077;50.264;6.798;2023-11-22T05:52:53;2.80;99.90
21830;DHT22;11077;50.264;6.798;2023-11-22T05:55:20;2.80;99.90
21830;DHT22;11077;50.264;6.798;2023-11-22T05:57:48;2.80;99.90
21830;DHT22;11077;50.264;6.798;2023-11-22T06:00:16;2.80;99.90
21830;DHT22;11077;50.264;6.798;2023-11-22T06:02:43;2.80;99.90
21830;DHT22;11077;50.264;6.798;2023-11-22T06:05:10;2.80;99.90
21830;DHT22;11077;50.264;6.798;2023-11-22T06:07:39;2.80;99.90
21830;DHT22;11077;50.264;6.798;2023-11-22T06:10:07;2.80;99.90
21830;DHT22;11077;50.264;6.798;2023-11-22T06:12:34;2.80;99.90
21830;DHT22;11077;50.264;6.798;2023-11-22T06:15:01;2.70;99.90
21830;DHT22;11077;50.264;6.798;2023-11-22T06:17:29;2.70;99.90
21830;DHT22;11077;50.264;6.798;2023-11-22T06:19:56;2.70;99.90
21830;DHT22;11077;50.264;6.798;2023-11-22T06:22:23;2.70;99.90
21830;DHT22;11077;50.264;6.798;2023-11-22T06:24:52;2.70;99.90
21830;DHT22;11077;50.264;6.798;2023-11-22T06:27:19;2.70;99.90
21830;DHT22;11077;50.264;6.798;2023-11-22T06:29:46;2.70;99.90
21830;DHT22;11077;50.264;6.798;2023-11-22T06:32:13;2.70;99.90
21830;DHT22;11077;50.264;6.798;2023-11-22T06:34:40;2.70;99.90
21830;DHT22;11077;50.264;6.798;2023-11-22T06:37:08;2.60;99.90
21830;DHT22;11077;50.264;6.798;2023-11-22T06:39:34;2.60;99.90
21830;DHT22;11077;50.264;6.798;2023-11-22T06:42:04;2.60;99.90
21830;DHT22;11077;50.264;6.798;2023-11-22T06:44:32;2.50;99.90
21830;DHT22;11077;50.264;6.798;2023-11-22T06:47:00;2.60;99.90
21830;DHT22;11077;50.264;6.798;2023-11-22T06:49:27;2.60;99.90
21830;DHT22;11077;50.264;6.798;2023-11-22T06:51:55;2.60;99.90
21830;DHT22;11077;50.264;6.798;2023-11-22T06:54:22;2.50;99.90
21830;DHT22;11077;50.264;6.798;2023-11-22T06:56:49;2.60;99.90
21830;DHT22;11077;50.264;6.798;2023-11-22T06:59:18;2.60;99.90
21830;DHT22;11077;50.264;6.798;2023-11-22T07:01:45;2.50;99.90
21830;DHT22;11077;50.264;6.798;2023-11-22T07:04:13;2.50;99.90
21830;DHT22;11077;50.264;6.798;2023-11-22T07:06:40;2.50;99.90
21830;DHT22;11077;50.264;6.798;2023-11-22T07:09:08;2.50;99.90
21830;DHT22;11077;50.264;6.798;2023-11-22T07:11:37;2.50;99.90
21830;DHT22;11077;50.264;6.798;2023-11-22T07:14:04;2.40;99.90
21830;DHT22;11077;50.264;6.798;2023-11-22T07:16:33;2.40;99.90
21830;DHT22;11077;50.264;6.798;2023-11-22T07:19:00;2.40;99.90
21830;DHT22;11077;50.264;6.798;2023-11-22T07:21:28;2.30;99.90
21830;DHT22;11077;50.264;6.798;2023-11-22T07:23:56;2.30;99.90
21830;DHT22;11077;50.264;6.798;2023-11-22T07:26:24;2.30;99.90
21830;DHT22;11077;50.264;6.798;2023-11-22T07:28:53;2.30;99.90
21830;DHT22;11077;50.264;6.798;2023-11-22T07:31:20;2.30;99.90
21830;DHT22;11077;50.264;6.798;2023-11-22T07:33:49;2.30;99.90
21830;DHT22;11077;50.264;6.798;2023-11-22T07:36:17;2.20;99.90
21830;DHT22;11077;50.264;6.798;2023-11-22T07:38:46;2.20;99.90
21830;DHT22;11077;50.264;6.798;2023-11-22T07:41:14;2.20;99.90
21830;DHT22;11077;50.264;6.798;2023-11-22T07:43:41;2.10;99.90
21830;DHT22;11077;50.264;6.798;2023-11-22T07:46:09;2.10;99.90
21830;DHT22;11077;50.264;6.798;2023-11-22T07:48:38;2.10;99.90
21830;DHT22;11077;50.264;6.798;2023-11-22T07:51:08;2.00;99.90
21830;DHT22;11077;50.264;6.798;2023-11-22T07:53:36;2.00;99.90
21830;DHT22;11077;50.264;6.798;2023-11-22T07:56:05;2.00;99.90
21830;DHT22;11077;50.264;6.798;2023-11-22T07:58:34;1.90;99.90
21830;DHT22;11077;50.264;6.798;2023-11-22T08:01:01;1.90;99.90
21830;DHT22;11077;50.264;6.798;2023-11-22T08:03:32;1.90;99.90
21830;DHT22;11077;50.264;6.798;2023-11-22T08:06:00;2.00;99.90
21830;DHT22;11077;50.264;6.798;2023-11-22T08:08:30;1.90;99.90
21830;DHT22;11077;50.264;6.798;2023-11-22T08:10:57;1.90;99.90
21830;DHT22;11077;50.264;6.798;2023-11-22T08:13:24;1.90;99.90
21830;DHT22;11077;50.264;6.798;2023-11-22T08:15:52;1.90;99.90
21830;DHT22;11077;50.264;6.798;2023-11-22T08:18:20;2.00;99.90
21830;DHT22;11077;50.264;6.798;2023-11-22T08:20:47;2.00;99.90
21830;DHT22;11077;50.264;6.798;2023-11-22T08:23:15;2.00;99.90
21830;DHT22;11077;50.264;6.798;2023-11-22T08:25:44;2.10;99.90
21830;DHT22;11077;50.264;6.798;2023-11-22T08:28:11;2.10;99.90
21830;DHT22;11077;50.264;6.798;2023-11-22T08:30:38;2.20;99.90
21830;DHT22;11077;50.264;6.798;2023-11-22T08:33:06;2.30;99.90
21830;DHT22;11077;50.264;6.798;2023-11-22T08:35:34;2.30;99.90
21830;DHT22;11077;50.264;6.798;2023-11-22T08:38:01;2.30;99.90
21830;DHT22;11077;50.264;6.798;2023-11-22T08:40:29;2.40;99.90
21830;DHT22;11077;50.264;6.798;2023-11-22T08:42:57;2.50;99.90
21830;DHT22;11077;50.264;6.798;2023-11-22T08:45:25;2.60;99.90
21830;DHT22;11077;50.264;6.798;2023-11-22T08:47:54;2.70;99.90
21830;DHT22;11077;50.264;6.798;2023-11-22T08:50:22;2.80;99.90
21830;DHT22;11077;50.264;6.798;2023-11-22T08:52:49;3.10;99.90
21830;DHT22;11077;50.264;6.798;2023-11-22T08:55:19;3.10;99.90
21830;DHT22;11077;50.264;6.798;2023-11-22T08:57:47;3.30;99.90
21830;DHT22;11077;50.264;6.798;2023-11-22T09:00:18;3.40;99.90
21830;DHT22;11077;50.264;6.798;2023-11-22T09:02:48;3.50;99.90
21830;DHT22;11077;50.264;6.798;2023-11-22T09:05:15;3.70;99.90
21830;DHT22;11077;50.264;6.798;2023-11-22T09:07:45;3.90;99.90
21830;DHT22;11077;50.264;6.798;2023-11-22T09:10:12;4.00;99.90
21830;DHT22;11077;50.264;6.798;2023-11-22T09:12:41;4.10;99.90
21830;DHT22;11077;50.264;6.798;2023-11-22T09:15:10;4.20;99.90
21830;DHT22;11077;50.264;6.798;2023-11-22T09:17:41;4.30;99.90
21830;DHT22;11077;50.264;6.798;2023-11-22T09:20:10;4.40;99.90
21830;DHT22;11077;50.264;6.798;2023-11-22T09:22:42;4.40;99.90
21830;DHT22;11077;50.264;6.798;2023-11-22T09:25:13;4.40;99.90
21830;DHT22;11077;50.264;6.798;2023-11-22T09:27:42;4.40;99.90
21830;DHT22;11077;50.264;6.798;2023-11-22T09:30:13;4.50;99.90
21830;DHT22;11077;50.264;6.798;2023-11-22T09:32:46;4.60;99.90
21830;DHT22;11077;50.264;6.798;2023-11-22T09:35:14;4.60;99.90
21830;DHT22;11077;50.264;6.798;2023-11-22T09:37:42;4.60;99.90
21830;DHT22;11077;50.264;6.798;2023-11-22T09:40:11;4.70;99.90
21830;DHT22;11077;50.264;6.798;2023-11-22T09:42:43;4.70;99.90
21830;DHT22;11077;50.264;6.798;2023-11-22T09:45:16;4.70;99.90
21830;DHT22;11077;50.264;6.798;2023-11-22T09:47:46;4.70;99.90
21830;DHT22;11077;50.264;6.798;2023-11-22T09:50:19;4.70;99.90
21830;DHT22;11077;50.264;6.798;2023-11-22T09:52:50;4.60;99.90
21830;DHT22;11077;50.264;6.798;2023-11-22T09:55:18;4.60;99.90
21830;DHT22;11077;50.264;6.798;2023-11-22T09:57:46;4.70;99.90
21830;DHT22;11077;50.264;6.798;2023-11-22T10:00:14;4.70;99.90
21830;DHT22;11077;50.264;6.798;2023-11-22T10:02:46;4.60;99.90
21830;DHT22;11077;50.264;6.798;2023-11-22T10:05:14;4.50;99.90
21830;DHT22;11077;50.264;6.798;2023-11-22T10:07:41;4.60;99.90
21830;DHT22;11077;50.264;6.798;2023-11-22T10:10:08;4.60;99.90
21830;DHT22;11077;50.264;6.798;2023-11-22T10:12:36;4.80;99.90
21830;DHT22;11077;50.264;6.798;2023-11-22T10:15:16;4.90;99.90
21830;DHT22;11077;50.264;6.798;2023-11-22T10:17:54;5.00;99.90
21830;DHT22;11077;50.264;6.798;2023-11-22T10:20:24;5.10;99.90
21830;DHT22;11077;50.264;6.798;2023-11-22T10:22:52;5.10;99.90
21830;DHT22;11077;50.264;6.798;2023-11-22T10:25:20;5.10;99.90
21830;DHT22;11077;50.264;6.798;2023-11-22T10:27:48;5.00;99.90
21830;DHT22;11077;50.264;6.798;2023-11-22T10:30:17;4.90;99.90
21830;DHT22;11077;50.264;6.798;2023-11-22T10:32:45;5.00;99.90
21830;DHT22;11077;50.264;6.798;2023-11-22T10:35:15;4.90;99.90
21830;DHT22;11077;50.264;6.798;2023-11-22T10:37:43;4.90;99.90
21830;DHT22;11077;50.264;6.798;2023-11-22T10:40:12;5.10;99.90
21830;DHT22;11077;50.264;6.798;2023-11-22T10:42:41;5.10;99.90
21830;DHT22;11077;50.264;6.798;2023-11-22T10:45:09;5.20;99.90
21830;DHT22;11077;50.264;6.798;2023-11-22T10:47:38;5.20;99.90
21830;DHT22;11077;50.264;6.798;2023-11-22T10:50:08;5.30;99.90
21830;DHT22;11077;50.264;6.798;2023-11-22T10:52:41;5.50;99.90
21830;DHT22;11077;50.264;6.798;2023-11-22T10:55:11;5.50;99.90
21830;DHT22;11077;50.264;6.798;2023-11-22T10:57:45;5.60;99.90
21830;DHT22;11077;50.264;6.798;2023-11-22T11:00:15;5.60;99.90
21830;DHT22;11077;50.264;6.798;2023-11-22T11:02:45;5.70;99.90
21830;DHT22;11077;50.264;6.798;2023-11-22T11:05:21;5.70;99.90
21830;DHT22;11077;50.264;6.798;2023-11-22T11:08:00;5.70;99.90
21830;DHT22;11077;50.264;6.798;2023-11-22T11:10:28;5.60;99.90
21830;DHT22;11077;50.264;6.798;2023-11-22T11:12:56;5.60;99.90
21830;DHT22;11077;50.264;6.798;2023-11-22T11:15:24;5.60;99.90
21830;DHT22;11077;50.264;6.798;2023-11-22T11:17:53;5.60;99.90
21830;DHT22;11077;50.264;6.798;2023-11-22T11:20:23;5.60;99.90
21830;DHT22;11077;50.264;6.798;2023-11-22T11:22:50;5.50;99.90
21830;DHT22;11077;50.264;6.798;2023-11-22T11:25:21;5.60;99.90
21830;DHT22;11077;50.264;6.798;2023-11-22T11:27:58;5.60;99.90
21830;DHT22;11077;50.264;6.798;2023-11-22T11:30:42;5.50;99.90
21830;DHT22;11077;50.264;6.798;2023-11-22T11:33:11;5.50;99.90
21830;DHT22;11077;50.264;6.798;2023-11-22T11:35:41;5.50;99.90
21830;DHT22;11077;50.264;6.798;2023-11-22T11:38:12;5.60;99.90
21830;DHT22;11077;50.264;6.798;2023-11-22T11:40:42;5.50;99.90
21830;DHT22;11077;50.264;6.798;2023-11-22T11:43:11;5.40;99.90
21830;DHT22;11077;50.264;6.798;2023-11-22T11:45:39;5.30;99.90
21830;DHT22;11077;50.264;6.798;2023-11-22T11:48:12;5.30;99.90
21830;DHT22;11077;50.264;6.798;2023-11-22T11:50:40;5.40;99.90
21830;DHT22;11077;50.264;6.798;2023-11-22T11:53:07;5.20;99.90
21830;DHT22;11077;50.264;6.798;2023-11-22T11:55:34;5.20;99.90
21830;DHT22;11077;50.264;6.798;2023-11-22T11:58:07;5.20;99.90
21830;DHT22;11077;50.264;6.798;2023-11-22T12:00:36;5.20;99.90
21830;DHT22;11077;50.264;6.798;2023-11-22T12:03:06;5.20;99.90
21830;DHT22;11077;50.264;6.798;2023-11-22T12:05:36;5.30;99.90
21830;DHT22;11077;50.264;6.798;2023-11-22T12:08:03;5.30;99.90
21830;DHT22;11077;50.264;6.798;2023-11-22T12:10:30;5.20;99.90
21830;DHT22;11077;50.264;6.798;2023-11-22T12:12:58;5.20;99.90
21830;DHT22;11077;50.264;6.798;2023-11-22T12:15:27;5.10;99.90
21830;DHT22;11077;50.264;6.798;2023-11-22T12:17:55;5.00;99.90
21830;DHT22;11077;50.264;6.798;2023-11-22T12:20:24;4.90;99.90
21830;DHT22;11077;50.264;6.798;2023-11-22T12:22:52;4.80;99.90
21830;DHT22;11077;50.264;6.798;2023-11-22T12:25:20;4.60;99.90
21830;DHT22;11077;50.264;6.798;2023-11-22T12:27:48;4.70;99.90
21830;DHT22;11077;50.264;6.798;2023-11-22T12:30:30;4.70;99.90
21830;DHT22;11077;50.264;6.798;2023-11-22T12:33:02;4.70;99.90
21830;DHT22;11077;50.264;6.798;2023-11-22T12:35:30;4.80;99.90
21830;DHT22;11077;50.264;6.798;2023-11-22T12:37:59;4.80;99.90
21830;DHT22;11077;50.264;6.798;2023-11-22T12:40:29;4.70;99.90
21830;DHT22;11077;50.264;6.798;2023-11-22T12:42:59;4.70;99.90
21830;DHT22;11077;50.264;6.798;2023-11-22T12:45:29;4.70;99.90
21830;DHT22;11077;50.264;6.798;2023-11-22T12:47:59;4.70;99.90
21830;DHT22;11077;50.264;6.798;2023-11-22T12:50:31;4.80;99.90
21830;DHT22;11077;50.264;6.798;2023-11-22T12:52:58;4.60;99.90
21830;DHT22;11077;50.264;6.798;2023-11-22T12:55:25;4.60;99.90
21830;DHT22;11077;50.264;6.798;2023-11-22T12:57:58;4.50;99.90
21830;DHT22;11077;50.264;6.798;2023-11-22T13:00:30;4.50;99.90
21830;DHT22;11077;50.264;6.798;2023-11-22T13:02:57;4.50;99.90
21830;DHT22;11077;50.264;6.798;2023-11-22T13:05:24;4.40;99.90
21830;DHT22;11077;50.264;6.798;2023-11-22T13:07:52;4.30;99.90
21830;DHT22;11077;50.264;6.798;2023-11-22T13:10:19;4.40;99.90
21830;DHT22;11077;50.264;6.798;2023-11-22T13:12:54;4.30;99.90
21830;DHT22;11077;50.264;6.798;2023-11-22T13:15:25;4.30;99.90
21830;DHT22;11077;50.264;6.798;2023-11-22T13:17:57;4.20;99.90
21830;DHT22;11077;50.264;6.798;2023-11-22T13:20:26;4.20;99.90
21830;DHT22;11077;50.264;6.798;2023-11-22T13:22:54;4.10;99.90
21830;DHT22;11077;50.264;6.798;2023-11-22T13:25:22;4.10;99.90
21830;DHT22;11077;50.264;6.798;2023-11-22T13:27:50;4.10;99.90
21830;DHT22;11077;50.264;6.798;2023-11-22T13:30:19;4.00;99.90
21830;DHT22;11077;50.264;6.798;2023-11-22T13:32:48;3.90;99.90
21830;DHT22;11077;50.264;6.798;2023-11-22T13:35:17;3.90;99.90
21830;DHT22;11077;50.264;6.798;2023-11-22T13:37:46;3.80;99.90
21830;DHT22;11077;50.264;6.798;2023-11-22T13:40:14;3.80;99.90
21830;DHT22;11077;50.264;6.798;2023-11-22T13:42:43;3.80;99.90
21830;DHT22;11077;50.264;6.798;2023-11-22T13:45:11;3.70;99.90
21830;DHT22;11077;50.264;6.798;2023-11-22T13:47:43;3.70;99.90
21830;DHT22;11077;50.264;6.798;2023-11-22T13:50:12;3.70;99.90
21830;DHT22;11077;50.264;6.798;2023-11-22T13:52:43;3.60;99.90
21830;DHT22;11077;50.264;6.798;2023-11-22T13:55:11;3.60;99.90
21830;DHT22;11077;50.264;6.798;2023-11-22T13:57:39;3.60;99.90
21830;DHT22;11077;50.264;6.798;2023-11-22T14:00:08;3.60;99.90
21830;DHT22;11077;50.264;6.798;2023-11-22T14:02:38;3.60;99.90
21830;DHT22;11077;50.264;6.798;2023-11-22T14:05:08;3.60;99.90
21830;DHT22;11077;50.264;6.798;2023-11-22T14:07:38;3.50;99.90
21830;DHT22;11077;50.264;6.798;2023-11-22T14:10:08;3.40;99.90
21830;DHT22;11077;50.264;6.798;2023-11-22T14:12:38;3.40;99.90
21830;DHT22;11077;50.264;6.798;2023-11-22T14:15:06;3.30;99.90
21830;DHT22;11077;50.264;6.798;2023-11-22T14:17:33;3.30;99.90
21830;DHT22;11077;50.264;6.798;2023-11-22T14:20:00;3.20;99.90
21830;DHT22;11077;50.264;6.798;2023-11-22T14:22:31;3.20;99.90
21830;DHT22;11077;50.264;6.798;2023-11-22T14:24:58;3.20;99.90
21830;DHT22;11077;50.264;6.798;2023-11-22T14:27:27;3.10;99.90
21830;DHT22;11077;50.264;6.798;2023-11-22T14:29:56;3.10;99.90
21830;DHT22;11077;50.264;6.798;2023-11-22T14:32:23;3.10;99.90
21830;DHT22;11077;50.264;6.798;2023-11-22T14:34:51;3.00;99.90
21830;DHT22;11077;50.264;6.798;2023-11-22T14:37:19;3.00;99.90
21830;DHT22;11077;50.264;6.798;2023-11-22T14:39:46;3.00;99.90
21830;DHT22;11077;50.264;6.798;2023-11-22T14:42:14;3.00;99.90
21830;DHT22;11077;50.264;6.798;2023-11-22T14:44:44;3.10;99.90
21830;DHT22;11077;50.264;6.798;2023-11-22T14:47:11;3.00;99.90
21830;DHT22;11077;50.264;6.798;2023-11-22T14:49:44;3.00;99.90
21830;DHT22;11077;50.264;6.798;2023-11-22T14:52:11;3.00;99.90
21830;DHT22;11077;50.264;6.798;2023-11-22T14:54:39;3.10;99.90
21830;DHT22;11077;50.264;6.798;2023-11-22T14:57:07;3.00;99.90
21830;DHT22;11077;50.264;6.798;2023-11-22T14:59:35;3.00;99.90
21830;DHT22;11077;50.264;6.798;2023-11-22T15:02:05;2.90;99.90
21830;DHT22;11077;50.264;6.798;2023-11-22T15:04:35;2.90;99.90
21830;DHT22;11077;50.264;6.798;2023-11-22T15:07:03;2.80;99.90
21830;DHT22;11077;50.264;6.798;2023-11-22T15:09:31;2.80;99.90
21830;DHT22;11077;50.264;6.798;2023-11-22T15:11:59;2.80;99.90
21830;DHT22;11077;50.264;6.798;2023-11-22T15:14:28;2.80;99.90
21830;DHT22;11077;50.264;6.798;2023-11-22T15:16:55;2.80;99.90
21830;DHT22;11077;50.264;6.798;2023-11-22T15:19:24;2.80;99.90
21830;DHT22;11077;50.264;6.798;2023-11-22T15:21:53;2.80;99.90
21830;DHT22;11077;50.264;6.798;2023-11-22T15:24:21;2.80;99.90
21830;DHT22;11077;50.264;6.798;2023-11-22T15:26:48;2.70;99.90
21830;DHT22;11077;50.264;6.798;2023-11-22T15:29:22;2.80;99.90
21830;DHT22;11077;50.264;6.798;2023-11-22T15:31:49;2.70;99.90
21830;DHT22;11077;50.264;6.798;2023-11-22T15:34:17;2.70;99.90
21830;DHT22;11077;50.264;6.798;2023-11-22T15:36:45;2.60;99.90
21830;DHT22;11077;50.264;6.798;2023-11-22T15:39:12;2.60;99.90
21830;DHT22;11077;50.264;6.798;2023-11-22T15:41:43;2.50;99.90
21830;DHT22;11077;50.264;6.798;2023-11-22T15:44:10;2.50;99.90
21830;DHT22;11077;50.264;6.798;2023-11-22T15:46:39;2.40;99.90
21830;DHT22;11077;50.264;6.798;2023-11-22T15:49:08;2.40;99.90
21830;DHT22;11077;50.264;6.798;2023-11-22T15:51:35;2.50;99.90